sensor_id;sensor_type;location;lat;lon;timestamp;temperature;humidity
1377;DHT22;682;52.502;13.488;2023-06-22T00:01:20;22.10;1.00
1377;DHT22;682;52.502;13.488;2023-06-22T00:03:47;22.10;1.00
1377;DHT22;682;52.502;13.488;2023-06-22T00:06:16;22.10;1.00
1377;DHT22;682;52.502;13.488;2023-06-22T00:08:42;22.10;1.00
1377;DHT22;682;52.502;13.488;2023-06-22T00:11:11;22.10;1.00
1377;DHT22;682;52.502;13.488;2023-06-22T00:13:38;22.10;1.00
1377;DHT22;682;52.502;13.488;2023-06-22T00:16:05;22.10;1.00
1377;DHT22;682;52.502;13.488;2023-06-22T00:18:32;22.00;1.00
1377;DHT22;682;52.502;13.488;2023-06-22T00:20:59;22.00;1.00
1377;DHT22;682;52.502;13.488;2023-06-22T00:23:26;21.90;1.00
1377;DHT22;682;52.502;13.488;2023-06-22T00:25:53;21.90;1.00
1377;DHT22;682;52.502;13.488;2023-06-22T00:28:21;21.80;1.00
1377;DHT22;682;52.502;13.488;2023-06-22T00:30:48;21.80;1.00
1377;DHT22;682;52.502;13.488;2023-06-22T00:33:16;21.80;1.00
1377;DHT22;682;52.502;13.488;2023-06-22T00:35:42;21.70;1.00
1377;DHT22;682;52.502;13.488;2023-06-22T00:38:09;21.70;1.00
1377;DHT22;682;52.502;13.488;2023-06-22T00:40:36;21.60;1.00
1377;DHT22;682;52.502;13.488;2023-06-22T00:43:04;21.60;1.00
1377;DHT22;682;52.502;13.488;2023-06-22T00:45:33;21.60;1.00
1377;DHT22;682;52.502;13.488;2023-06-22T00:48:01;21.60;1.00
1377;DHT22;682;52.502;13.488;2023-06-22T00:50:30;21.50;1.00
1377;DHT22;682;52.502;13.488;2023-06-22T00:53:00;21.50;1.00
1377;DHT22;682;52.502;13.488;2023-06-22T00:55:30;21.50;1.00
1377;DHT22;682;52.502;13.488;2023-06-22T00:57:57;21.50;1.00
1377;DHT22;682;52.502;13.488;2023-06-22T01:00:24;21.50;1.00
1377;DHT22;682;52.502;13.488;2023-06-22T01:02:57;21.50;1.00
1377;DHT22;682;52.502;13.488;2023-06-22T01:05:24;21.40;1.00
1377;DHT22;682;52.502;13.488;2023-06-22T01:08:06;21.40;1.00
1377;DHT22;682;52.502;13.488;2023-06-22T01:10:40;21.40;1.00
1377;DHT22;682;52.502;13.488;2023-06-22T01:13:18;21.40;1.00
1377;DHT22;682;52.502;13.488;2023-06-22T01:15:51;21.40;1.00
1377;DHT22;682;52.502;13.488;2023-06-22T01:18:22;21.40;1.00
1377;DHT22;682;52.502;13.488;2023-06-22T01:20:52;21.40;1.00
1377;DHT22;682;52.502;13.488;2023-06-22T01:23:27;21.40;1.00
1377;DHT22;682;52.502;13.488;2023-06-22T01:26:02;21.30;1.00
1377;DHT22;682;52.502;13.488;2023-06-22T01:28:45;21.30;1.00
1377;DHT22;682;52.502;13.488;2023-06-22T01:31:14;21.30;1.00
1377;DHT22;682;52.502;13.488;2023-06-22T01:33:44;21.30;1.00
1377;DHT22;682;52.502;13.488;2023-06-22T01:36:12;21.40;1.00
1377;DHT22;682;52.502;13.488;2023-06-22T01:38:42;21.30;1.00
1377;DHT22;682;52.502;13.488;2023-06-22T01:41:10;21.30;1.00
1377;DHT22;682;52.502;13.488;2023-06-22T01:43:41;21.20;1.00
1377;DHT22;682;52.502;13.488;2023-06-22T01:46:08;21.20;1.00
1377;DHT22;682;52.502;13.488;2023-06-22T01:48:35;21.10;1.00
1377;DHT22;682;52.502;13.488;2023-06-22T01:51:03;21.10;1.00
1377;DHT22;682;52.502;13.488;2023-06-22T01:53:30;21.10;1.00
1377;DHT22;682;52.502;13.488;2023-06-22T01:56:00;21.10;1.00
1377;DHT22;682;52.502;13.488;2023-06-22T01:58:28;21.10;1.00
1377;DHT22;682;52.502;13.488;2023-06-22T02:01:00;21.10;1.00
1377;DHT22;682;52.502;13.488;2023-06-22T02:03:32;21.10;1.00
1377;DHT22;682;52.502;13.488;2023-06-22T02:06:05;21.10;1.00
1377;DHT22;682;52.502;13.488;2023-06-22T02:08:38;21.10;1.00
1377;DHT22;682;52.502;13.488;2023-06-22T02:11:08;21.20;1.00
1377;DHT22;682;52.502;13.488;2023-06-22T02:13:36;21.20;1.00
1377;DHT22;682;52.502;13.488;2023-06-22T02:16:11;21.20;1.00
1377;DHT22;682;52.502;13.488;2023-06-22T02:18:46;21.10;1.00
1377;DHT22;682;52.502;13.488;2023-06-22T02:21:13;21.10;1.00
1377;DHT22;682;52.502;13.488;2023-06-22T02:23:40;21.00;1.00
1377;DHT22;682;52.502;13.488;2023-06-22T02:26:07;21.00;1.00
1377;DHT22;682;52.502;13.488;2023-06-22T02:28:34;21.00;1.00
1377;DHT22;682;52.502;13.488;2023-06-22T02:31:01;21.00;1.00
1377;DHT22;682;52.502;13.488;2023-06-22T02:33:30;21.00;1.00
1377;DHT22;682;52.502;13.488;2023-06-22T02:35:57;21.00;1.00
1377;DHT22;682;52.502;13.488;2023-06-22T02:38:24;21.00;1.00
1377;DHT22;682;52.502;13.488;2023-06-22T02:40:51;21.00;1.00
1377;DHT22;682;52.502;13.488;2023-06-22T02:43:18;21.10;1.00
1377;DHT22;682;52.502;13.488;2023-06-22T02:45:45;21.10;1.00
1377;DHT22;682;52.502;13.488;2023-06-22T02:48:12;21.10;1.00
1377;DHT22;682;52.502;13.488;2023-06-22T02:50:41;21.10;1.00
1377;DHT22;682;52.502;13.488;2023-06-22T02:53:08;21.20;1.00
1377;DHT22;682;52.502;13.488;2023-06-22T02:55:35;21.20;1.00
1377;DHT22;682;52.502;13.488;2023-06-22T02:58:02;21.20;1.00
1377;DHT22;682;52.502;13.488;2023-06-22T03:00:31;21.20;1.00
1377;DHT22;682;52.502;13.488;2023-06-22T03:02:58;21.20;1.00
1377;DHT22;682;52.502;13.488;2023-06-22T03:05:25;21.20;1.00
1377;DHT22;682;52.502;13.488;2023-06-22T03:07:55;21.30;1.00
1377;DHT22;682;52.502;13.488;2023-06-22T03:10:23;21.30;1.00
1377;DHT22;682;52.502;13.488;2023-06-22T03:12:50;21.30;1.00
1377;DHT22;682;52.502;13.488;2023-06-22T03:15:17;21.40;1.00
1377;DHT22;682;52.502;13.488;2023-06-22T03:17:46;21.40;1.00
1377;DHT22;682;52.502;13.488;2023-06-22T03:20:13;21.40;1.00
1377;DHT22;682;52.502;13.488;2023-06-22T03:22:41;21.40;1.00
1377;DHT22;682;52.502;13.488;2023-06-22T03:25:10;21.30;1.00
1377;DHT22;682;52.502;13.488;2023-06-22T03:27:42;21.30;1.00
1377;DHT22;682;52.502;13.488;2023-06-22T03:30:11;21.20;1.00
1377;DHT22;682;52.502;13.488;2023-06-22T03:32:38;21.10;1.00
1377;DHT22;682;52.502;13.488;2023-06-22T03:35:06;21.10;1.00
1377;DHT22;682;52.502;13.488;2023-06-22T03:37:33;21.00;1.00
1377;DHT22;682;52.502;13.488;2023-06-22T03:40:00;20.90;1.00
1377;DHT22;682;52.502;13.488;2023-06-22T03:42:30;21.00;1.00
1377;DHT22;682;52.502;13.488;2023-06-22T03:44:57;21.00;1.00
1377;DHT22;682;52.502;13.488;2023-06-22T03:47:24;21.00;1.00
1377;DHT22;682;52.502;13.488;2023-06-22T03:49:51;21.10;1.00
1377;DHT22;682;52.502;13.488;2023-06-22T03:52:20;21.10;1.00
1377;DHT22;682;52.502;13.488;2023-06-22T03:54:48;21.00;1.00
1377;DHT22;682;52.502;13.488;2023-06-22T03:57:16;21.00;1.00
1377;DHT22;682;52.502;13.488;2023-06-22T03:59:45;21.10;1.00
1377;DHT22;682;52.502;13.488;2023-06-22T04:02:12;21.00;1.00
1377;DHT22;682;52.502;13.488;2023-06-22T04:04:39;21.00;1.00
1377;DHT22;682;52.502;13.488;2023-06-22T04:07:06;20.90;1.00
1377;DHT22;682;52.502;13.488;2023-06-22T04:09:34;20.90;1.00
1377;DHT22;682;52.502;13.488;2023-06-22T04:12:01;20.90;1.00
1377;DHT22;682;52.502;13.488;2023-06-22T04:14:29;20.90;1.00
1377;DHT22;682;52.502;13.488;2023-06-22T04:17:00;20.90;1.00
1377;DHT22;682;52.502;13.488;2023-06-22T04:19:27;20.90;1.00
1377;DHT22;682;52.502;13.488;2023-06-22T04:21:54;21.00;1.00
1377;DHT22;682;52.502;13.488;2023-06-22T04:24:21;21.00;1.00
1377;DHT22;682;52.502;13.488;2023-06-22T04:26:49;21.10;1.00
1377;DHT22;682;52.502;13.488;2023-06-22T04:29:20;21.10;1.00
1377;DHT22;682;52.502;13.488;2023-06-22T04:31:57;21.10;1.00
1377;DHT22;682;52.502;13.488;2023-06-22T04:34:32;21.10;1.00
1377;DHT22;682;52.502;13.488;2023-06-22T04:37:01;21.20;1.00
1377;DHT22;682;52.502;13.488;2023-06-22T04:39:36;21.20;1.00
1377;DHT22;682;52.502;13.488;2023-06-22T04:42:04;21.30;1.00
1377;DHT22;682;52.502;13.488;2023-06-22T04:44:34;21.30;1.00
1377;DHT22;682;52.502;13.488;2023-06-22T04:47:04;21.30;1.00
1377;DHT22;682;52.502;13.488;2023-06-22T04:49:35;21.40;1.00
1377;DHT22;682;52.502;13.488;2023-06-22T04:52:07;21.40;1.00
1377;DHT22;682;52.502;13.488;2023-06-22T04:54:36;21.40;1.00
1377;DHT22;682;52.502;13.488;2023-06-22T04:57:05;21.40;1.00
1377;DHT22;682;52.502;13.488;2023-06-22T04:59:37;21.50;1.00
1377;DHT22;682;52.502;13.488;2023-06-22T05:02:09;21.60;1.00
1377;DHT22;682;52.502;13.488;2023-06-22T05:04:38;21.70;1.00
1377;DHT22;682;52.502;13.488;2023-06-22T05:07:05;21.90;1.00
1377;DHT22;682;52.502;13.488;2023-06-22T05:09:35;22.00;1.00
1377;DHT22;682;52.502;13.488;2023-06-22T05:12:04;22.20;1.00
1377;DHT22;682;52.502;13.488;2023-06-22T05:14:31;22.40;1.00
1377;DHT22;682;52.502;13.488;2023-06-22T05:16:59;22.50;1.00
1377;DHT22;682;52.502;13.488;2023-06-22T05:19:33;22.60;1.00
1377;DHT22;682;52.502;13.488;2023-06-22T05:22:00;22.70;1.00
1377;DHT22;682;52.502;13.488;2023-06-22T05:24:27;22.80;1.00
1377;DHT22;682;52.502;13.488;2023-06-22T05:26:56;22.80;1.00
1377;DHT22;682;52.502;13.488;2023-06-22T05:29:23;22.90;1.00
1377;DHT22;682;52.502;13.488;2023-06-22T05:31:53;22.90;1.00
1377;DHT22;682;52.502;13.488;2023-06-22T05:34:20;22.90;1.00
1377;DHT22;682;52.502;13.488;2023-06-22T05:36:48;23.00;1.00
1377;DHT22;682;52.502;13.488;2023-06-22T05:39:17;23.00;1.00
1377;DHT22;682;52.502;13.488;2023-06-22T05:41:46;22.90;1.00
1377;DHT22;682;52.502;13.488;2023-06-22T05:44:14;22.80;1.00
1377;DHT22;682;52.502;13.488;2023-06-22T05:46:43;22.90;1.00
1377;DHT22;682;52.502;13.488;2023-06-22T05:49:13;23.10;1.00
1377;DHT22;682;52.502;13.488;2023-06-22T05:51:42;23.30;1.00
1377;DHT22;682;52.502;13.488;2023-06-22T05:54:15;23.40;1.00
1377;DHT22;682;52.502;13.488;2023-06-22T05:56:43;23.50;1.00
1377;DHT22;682;52.502;13.488;2023-06-22T05:59:10;23.50;1.00
1377;DHT22;682;52.502;13.488;2023-06-22T06:01:43;23.70;1.00
1377;DHT22;682;52.502;13.488;2023-06-22T06:04:10;23.80;1.00
1377;DHT22;682;52.502;13.488;2023-06-22T06:06:37;23.70;1.00
1377;DHT22;682;52.502;13.488;2023-06-22T06:09:06;23.60;1.00
1377;DHT22;682;52.502;13.488;2023-06-22T06:11:43;23.70;1.00
1377;DHT22;682;52.502;13.488;2023-06-22T06:14:13;23.80;1.00
1377;DHT22;682;52.502;13.488;2023-06-22T06:16:43;23.80;1.00
1377;DHT22;682;52.502;13.488;2023-06-22T06:19:17;23.80;1.00
1377;DHT22;682;52.502;13.488;2023-06-22T06:21:44;23.80;1.00
1377;DHT22;682;52.502;13.488;2023-06-22T06:24:12;23.80;1.00
1377;DHT22;682;52.502;13.488;2023-06-22T06:26:40;23.80;1.00
1377;DHT22;682;52.502;13.488;2023-06-22T06:29:08;23.80;1.00
1377;DHT22;682;52.502;13.488;2023-06-22T06:31:35;23.60;1.00
1377;DHT22;682;52.502;13.488;2023-06-22T06:34:02;23.70;1.00
1377;DHT22;682;52.502;13.488;2023-06-22T06:36:30;23.80;1.00
1377;DHT22;682;52.502;13.488;2023-06-22T06:38:57;23.80;1.00
1377;DHT22;682;52.502;13.488;2023-06-22T06:41:25;23.80;1.00
1377;DHT22;682;52.502;13.488;2023-06-22T06:44:20;23.80;1.00
1377;DHT22;682;52.502;13.488;2023-06-22T06:46:56;24.10;1.00
1377;DHT22;682;52.502;13.488;2023-06-22T06:49:23;24.30;1.00
1377;DHT22;682;52.502;13.488;2023-06-22T06:51:54;24.50;1.00
1377;DHT22;682;52.502;13.488;2023-06-22T06:54:23;24.80;1.00
1377;DHT22;682;52.502;13.488;2023-06-22T06:56:50;25.00;1.00
1377;DHT22;682;52.502;13.488;2023-06-22T06:59:18;25.10;1.00
1377;DHT22;682;52.502;13.488;2023-06-22T07:01:46;25.10;1.00
1377;DHT22;682;52.502;13.488;2023-06-22T07:04:19;25.30;1.00
1377;DHT22;682;52.502;13.488;2023-06-22T07:06:52;25.50;1.00
1377;DHT22;682;52.502;13.488;2023-06-22T07:09:21;25.50;1.00
1377;DHT22;682;52.502;13.488;2023-06-22T07:11:48;25.60;1.00
1377;DHT22;682;52.502;13.488;2023-06-22T07:14:16;25.20;1.00
1377;DHT22;682;52.502;13.488;2023-06-22T07:16:45;25.00;1.00
1377;DHT22;682;52.502;13.488;2023-06-22T07:19:15;25.00;1.00
1377;DHT22;682;52.502;13.488;2023-06-22T07:21:42;24.90;1.00
1377;DHT22;682;52.502;13.488;2023-06-22T07:24:10;25.10;1.00
1377;DHT22;682;52.502;13.488;2023-06-22T07:26:37;25.10;1.00
1377;DHT22;682;52.502;13.488;2023-06-22T07:29:04;25.30;1.00
1377;DHT22;682;52.502;13.488;2023-06-22T07:31:34;25.70;1.00
1377;DHT22;682;52.502;13.488;2023-06-22T07:34:03;25.90;1.00
1377;DHT22;682;52.502;13.488;2023-06-22T07:36:30;26.10;1.00
1377;DHT22;682;52.502;13.488;2023-06-22T07:38:59;26.30;1.00
1377;DHT22;682;52.502;13.488;2023-06-22T07:41:35;26.40;1.00
1377;DHT22;682;52.502;13.488;2023-06-22T07:44:03;26.50;1.00
1377;DHT22;682;52.502;13.488;2023-06-22T07:46:31;26.70;1.00
1377;DHT22;682;52.502;13.488;2023-06-22T07:48:58;26.90;1.00
1377;DHT22;682;52.502;13.488;2023-06-22T07:51:29;26.90;1.00
1377;DHT22;682;52.502;13.488;2023-06-22T07:53:57;26.90;1.00
1377;DHT22;682;52.502;13.488;2023-06-22T07:56:24;27.10;1.00
1377;DHT22;682;52.502;13.488;2023-06-22T07:58:53;27.20;1.00
1377;DHT22;682;52.502;13.488;2023-06-22T08:01:23;27.30;1.00
1377;DHT22;682;52.502;13.488;2023-06-22T08:03:51;27.30;1.00
1377;DHT22;682;52.502;13.488;2023-06-22T08:06:33;27.40;1.00
1377;DHT22;682;52.502;13.488;2023-06-22T08:09:02;27.60;1.00
1377;DHT22;682;52.502;13.488;2023-06-22T08:11:30;27.80;1.00
1377;DHT22;682;52.502;13.488;2023-06-22T08:13:59;27.70;1.00
1377;DHT22;682;52.502;13.488;2023-06-22T08:16:27;27.50;1.00
1377;DHT22;682;52.502;13.488;2023-06-22T08:18:55;27.30;1.00
1377;DHT22;682;52.502;13.488;2023-06-22T08:21:24;27.20;1.00
1377;DHT22;682;52.502;13.488;2023-06-22T08:23:54;27.30;1.00
1377;DHT22;682;52.502;13.488;2023-06-22T08:26:21;27.50;1.00
1377;DHT22;682;52.502;13.488;2023-06-22T08:28:50;27.80;1.00
1377;DHT22;682;52.502;13.488;2023-06-22T08:31:18;28.00;1.00
1377;DHT22;682;52.502;13.488;2023-06-22T08:33:48;28.10;1.00
1377;DHT22;682;52.502;13.488;2023-06-22T08:36:15;28.30;1.00
1377;DHT22;682;52.502;13.488;2023-06-22T08:38:44;28.50;1.00
1377;DHT22;682;52.502;13.488;2023-06-22T08:41:17;28.50;1.00
1377;DHT22;682;52.502;13.488;2023-06-22T08:43:45;28.80;1.00
1377;DHT22;682;52.502;13.488;2023-06-22T08:46:12;28.90;1.00
1377;DHT22;682;52.502;13.488;2023-06-22T08:48:45;29.00;1.00
1377;DHT22;682;52.502;13.488;2023-06-22T08:51:12;29.00;1.00
1377;DHT22;682;52.502;13.488;2023-06-22T08:53:41;29.20;1.00
1377;DHT22;682;52.502;13.488;2023-06-22T08:56:09;29.30;1.00
1377;DHT22;682;52.502;13.488;2023-06-22T08:58:40;29.50;1.00
1377;DHT22;682;52.502;13.488;2023-06-22T09:01:09;29.70;1.00
1377;DHT22;682;52.502;13.488;2023-06-22T09:03:36;29.80;1.00
1377;DHT22;682;52.502;13.488;2023-06-22T09:06:04;29.80;1.00
1377;DHT22;682;52.502;13.488;2023-06-22T09:08:31;29.20;1.00
1377;DHT22;682;52.502;13.488;2023-06-22T09:11:01;29.50;1.00
1377;DHT22;682;52.502;13.488;2023-06-22T09:13:30;30.00;1.00
1377;DHT22;682;52.502;13.488;2023-06-22T09:16:07;30.20;1.00
1377;DHT22;682;52.502;13.488;2023-06-22T09:18:34;30.30;1.00
1377;DHT22;682;52.502;13.488;2023-06-22T09:21:03;30.30;1.00
1377;DHT22;682;52.502;13.488;2023-06-22T09:23:34;30.30;1.00
1377;DHT22;682;52.502;13.488;2023-06-22T09:26:03;30.00;1.00
1377;DHT22;682;52.502;13.488;2023-06-22T09:28:31;30.10;1.00
1377;DHT22;682;52.502;13.488;2023-06-22T09:30:59;30.20;1.00
1377;DHT22;682;52.502;13.488;2023-06-22T09:33:30;30.30;1.00
1377;DHT22;682;52.502;13.488;2023-06-22T09:35:59;30.60;1.00
1377;DHT22;682;52.502;13.488;2023-06-22T09:38:27;30.80;1.00
1377;DHT22;682;52.502;13.488;2023-06-22T09:41:05;30.80;1.00
1377;DHT22;682;52.502;13.488;2023-06-22T09:43:32;31.00;1.00
1377;DHT22;682;52.502;13.488;2023-06-22T09:46:01;31.30;1.00
1377;DHT22;682;52.502;13.488;2023-06-22T09:48:30;31.70;1.00
1377;DHT22;682;52.502;13.488;2023-06-22T09:50:57;31.80;1.00
1377;DHT22;682;52.502;13.488;2023-06-22T09:53:25;31.90;1.00
1377;DHT22;682;52.502;13.488;2023-06-22T09:55:52;31.90;1.00
1377;DHT22;682;52.502;13.488;2023-06-22T09:58:20;32.00;1.00
1377;DHT22;682;52.502;13.488;2023-06-22T10:00:47;32.20;1.00
1377;DHT22;682;52.502;13.488;2023-06-22T10:03:14;32.60;1.00
1377;DHT22;682;52.502;13.488;2023-06-22T10:05:42;32.70;1.00
1377;DHT22;682;52.502;13.488;2023-06-22T10:08:10;32.90;1.00
1377;DHT22;682;52.502;13.488;2023-06-22T10:10:39;32.70;1.00
1377;DHT22;682;52.502;13.488;2023-06-22T10:13:09;32.50;1.00
1377;DHT22;682;52.502;13.488;2023-06-22T10:15:37;32.20;1.00
1377;DHT22;682;52.502;13.488;2023-06-22T10:18:05;32.00;1.00
1377;DHT22;682;52.502;13.488;2023-06-22T10:20:33;32.50;1.00
1377;DHT22;682;52.502;13.488;2023-06-22T10:23:03;32.70;1.00
1377;DHT22;682;52.502;13.488;2023-06-22T10:25:30;33.30;1.00
1377;DHT22;682;52.502;13.488;2023-06-22T10:27:57;33.50;1.00
1377;DHT22;682;52.502;13.488;2023-06-22T10:30:28;33.80;1.00
1377;DHT22;682;52.502;13.488;2023-06-22T10:32:58;33.90;1.00
1377;DHT22;682;52.502;13.488;2023-06-22T10:35:30;34.30;1.00
1377;DHT22;682;52.502;13.488;2023-06-22T10:37:58;34.70;1.00
1377;DHT22;682;52.502;13.488;2023-06-22T10:40:27;35.20;1.00
1377;DHT22;682;52.502;13.488;2023-06-22T10:42:54;34.80;1.00
1377;DHT22;682;52.502;13.488;2023-06-22T10:45:24;35.20;1.00
1377;DHT22;682;52.502;13.488;2023-06-22T10:47:55;35.00;1.00
1377;DHT22;682;52.502;13.488;2023-06-22T10:50:22;35.60;1.00
1377;DHT22;682;52.502;13.488;2023-06-22T10:52:51;36.60;1.00
1377;DHT22;682;52.502;13.488;2023-06-22T10:55:18;37.30;1.00
1377;DHT22;682;52.502;13.488;2023-06-22T10:57:49;37.40;1.00
1377;DHT22;682;52.502;13.488;2023-06-22T11:00:19;37.40;1.00
1377;DHT22;682;52.502;13.488;2023-06-22T11:02:53;37.00;1.00
1377;DHT22;682;52.502;13.488;2023-06-22T11:05:26;37.50;1.00
1377;DHT22;682;52.502;13.488;2023-06-22T11:08:22;38.30;1.00
1377;DHT22;682;52.502;13.488;2023-06-22T11:10:52;38.90;1.00
1377;DHT22;682;52.502;13.488;2023-06-22T11:13:23;39.90;1.00
1377;DHT22;682;52.502;13.488;2023-06-22T11:15:50;39.20;1.00
1377;DHT22;682;52.502;13.488;2023-06-22T11:18:18;38.80;1.00
1377;DHT22;682;52.502;13.488;2023-06-22T11:20:48;38.30;1.00
1377;DHT22;682;52.502;13.488;2023-06-22T11:23:16;37.90;1.00
1377;DHT22;682;52.502;13.488;2023-06-22T11:25:46;37.00;1.00
1377;DHT22;682;52.502;13.488;2023-06-22T11:28:16;36.70;1.00
1377;DHT22;682;52.502;13.488;2023-06-22T11:30:47;37.10;1.00
1377;DHT22;682;52.502;13.488;2023-06-22T11:33:14;37.70;1.00
1377;DHT22;682;52.502;13.488;2023-06-22T11:35:41;38.10;1.00
1377;DHT22;682;52.502;13.488;2023-06-22T11:38:09;38.90;1.00
1377;DHT22;682;52.502;13.488;2023-06-22T11:40:36;39.60;1.00
1377;DHT22;682;52.502;13.488;2023-06-22T11:43:05;40.60;1.00
1377;DHT22;682;52.502;13.488;2023-06-22T11:45:32;41.40;1.00
1377;DHT22;682;52.502;13.488;2023-06-22T11:48:01;41.80;1.00
1377;DHT22;682;52.502;13.488;2023-06-22T11:50:28;41.80;1.00
1377;DHT22;682;52.502;13.488;2023-06-22T11:52:55;41.40;1.00
1377;DHT22;682;52.502;13.488;2023-06-22T11:55:23;41.80;1.00
1377;DHT22;682;52.502;13.488;2023-06-22T11:57:55;41.60;1.00
1377;DHT22;682;52.502;13.488;2023-06-22T12:00:24;41.00;1.00
1377;DHT22;682;52.502;13.488;2023-06-22T12:02:51;40.90;1.00
1377;DHT22;682;52.502;13.488;2023-06-22T12:05:23;41.70;1.00
1377;DHT22;682;52.502;13.488;2023-06-22T12:07:52;41.90;1.00
1377;DHT22;682;52.502;13.488;2023-06-22T12:10:25;42.20;1.00
1377;DHT22;682;52.502;13.488;2023-06-22T12:12:54;42.60;1.00
1377;DHT22;682;52.502;13.488;2023-06-22T12:15:21;42.80;1.00
1377;DHT22;682;52.502;13.488;2023-06-22T12:17:48;42.60;1.00
1377;DHT22;682;52.502;13.488;2023-06-22T12:20:17;42.70;1.00
1377;DHT22;682;52.502;13.488;2023-06-22T12:22:46;43.10;1.00
1377;DHT22;682;52.502;13.488;2023-06-22T12:25:13;42.70;1.00
1377;DHT22;682;52.502;13.488;2023-06-22T12:27:43;43.20;1.00
1377;DHT22;682;52.502;13.488;2023-06-22T12:30:11;41.30;1.00
1377;DHT22;682;52.502;13.488;2023-06-22T12:32:39;40.10;1.00
1377;DHT22;682;52.502;13.488;2023-06-22T12:35:07;39.30;1.00
1377;DHT22;682;52.502;13.488;2023-06-22T12:37:40;39.40;1.00
1377;DHT22;682;52.502;13.488;2023-06-22T12:40:12;39.60;1.00
1377;DHT22;682;52.502;13.488;2023-06-22T12:42:40;40.10;1.00
1377;DHT22;682;52.502;13.488;2023-06-22T12:45:09;40.90;1.00
1377;DHT22;682;52.502;13.488;2023-06-22T12:47:36;41.80;1.00
1377;DHT22;682;52.502;13.488;2023-06-22T12:50:05;42.00;1.00
1377;DHT22;682;52.502;13.488;2023-06-22T12:52:36;41.80;1.00
1377;DHT22;682;52.502;13.488;2023-06-22T12:55:05;42.00;1.00
1377;DHT22;682;52.502;13.488;2023-06-22T12:57:34;41.50;1.00
1377;DHT22;682;52.502;13.488;2023-06-22T13:00:02;40.80;1.00
1377;DHT22;682;52.502;13.488;2023-06-22T13:02:31;41.10;1.00
1377;DHT22;682;52.502;13.488;2023-06-22T13:04:58;40.80;1.00
1377;DHT22;682;52.502;13.488;2023-06-22T13:07:25;40.60;1.00
1377;DHT22;682;52.502;13.488;2023-06-22T13:09:52;40.90;1.00
1377;DHT22;682;52.502;13.488;2023-06-22T13:12:20;41.30;1.00
1377;DHT22;682;52.502;13.488;2023-06-22T13:14:48;41.20;1.00
1377;DHT22;682;52.502;13.488;2023-06-22T13:17:18;41.50;1.00
1377;DHT22;682;52.502;13.488;2023-06-22T13:19:45;41.80;1.00
1377;DHT22;682;52.502;13.488;2023-06-22T13:22:27;42.30;1.00
1377;DHT22;682;52.502;13.488;2023-06-22T13:25:00;42.60;1.00
1377;DHT22;682;52.502;13.488;2023-06-22T13:27:27;42.20;1.00
1377;DHT22;682;52.502;13.488;2023-06-22T13:29:56;42.30;1.00
1377;DHT22;682;52.502;13.488;2023-06-22T13:32:24;42.20;1.00
1377;DHT22;682;52.502;13.488;2023-06-22T13:34:54;41.50;1.00
1377;DHT22;682;52.502;13.488;2023-06-22T13:37:21;41.70;1.00
1377;DHT22;682;52.502;13.488;2023-06-22T13:39:48;41.70;1.00
1377;DHT22;682;52.502;13.488;2023-06-22T13:42:16;42.10;1.00
1377;DHT22;682;52.502;13.488;2023-06-22T13:44:43;42.50;1.00
1377;DHT22;682;52.502;13.488;2023-06-22T13:47:11;42.20;1.00
1377;DHT22;682;52.502;13.488;2023-06-22T13:49:38;42.40;1.00
1377;DHT22;682;52.502;13.488;2023-06-22T13:52:06;42.80;1.00
1377;DHT22;682;52.502;13.488;2023-06-22T13:54:35;42.90;1.00
1377;DHT22;682;52.502;13.488;2023-06-22T13:57:04;42.70;1.00
1377;DHT22;682;52.502;13.488;2023-06-22T13:59:34;42.40;1.00
1377;DHT22;682;52.502;13.488;2023-06-22T14:02:03;42.40;1.00
1377;DHT22;682;52.502;13.488;2023-06-22T14:04:35;42.80;1.00
1377;DHT22;682;52.502;13.488;2023-06-22T14:07:02;42.80;1.00
1377;DHT22;682;52.502;13.488;2023-06-22T14:09:29;42.20;1.00
1377;DHT22;682;52.502;13.488;2023-06-22T14:11:59;42.00;1.00
1377;DHT22;682;52.502;13.488;2023-06-22T14:14:38;42.20;1.00
1377;DHT22;682;52.502;13.488;2023-06-22T14:17:05;41.50;1.00
1377;DHT22;682;52.502;13.488;2023-06-22T14:19:35;41.90;1.00
1377;DHT22;682;52.502;13.488;2023-06-22T14:22:03;42.20;1.00
1377;DHT22;682;52.502;13.488;2023-06-22T14:24:31;42.30;1.00
1377;DHT22;682;52.502;13.488;2023-06-22T14:26:58;42.30;1.00
1377;DHT22;682;52.502;13.488;2023-06-22T14:29:33;42.30;1.00
1377;DHT22;682;52.502;13.488;2023-06-22T14:32:00;41.70;1.00
1377;DHT22;682;52.502;13.488;2023-06-22T14:34:29;42.00;1.00
1377;DHT22;682;52.502;13.488;2023-06-22T14:36:57;42.00;1.00
1377;DHT22;682;52.502;13.488;2023-06-22T14:39:26;41.50;1.00
1377;DHT22;682;52.502;13.488;2023-06-22T14:41:54;41.40;1.00
1377;DHT22;682;52.502;13.488;2023-06-22T14:44:21;41.10;1.00
1377;DHT22;682;52.502;13.488;2023-06-22T14:46:48;41.40;1.00
1377;DHT22;682;52.502;13.488;2023-06-22T14:49:18;41.40;1.00
1377;DHT22;682;52.502;13.488;2023-06-22T14:51:45;41.10;1.00
1377;DHT22;682;52.502;13.488;2023-06-22T14:54:13;41.20;1.00
1377;DHT22;682;52.502;13.488;2023-06-22T14:56:43;41.00;1.00
1377;DHT22;682;52.502;13.488;2023-06-22T14:59:10;40.60;1.00
1377;DHT22;682;52.502;13.488;2023-06-22T15:01:43;40.50;1.00
1377;DHT22;682;52.502;13.488;2023-06-22T15:04:11;40.20;1.00
1377;DHT22;682;52.502;13.488;2023-06-22T15:06:38;39.70;1.00
1377;DHT22;682;52.502;13.488;2023-06-22T15:09:06;39.70;1.00
1377;DHT22;682;52.502;13.488;2023-06-22T15:11:35;39.60;1.00
1377;DHT22;682;52.502;13.488;2023-06-22T15:14:02;39.50;1.00
1377;DHT22;682;52.502;13.488;2023-06-22T15:16:30;39.60;1.00
1377;DHT22;682;52.502;13.488;2023-06-22T15:18:57;40.00;1.00
1377;DHT22;682;52.502;13.488;2023-06-22T15:21:24;39.80;1.00
1377;DHT22;682;52.502;13.488;2023-06-22T15:23:51;39.70;1.00
1377;DHT22;682;52.502;13.488;2023-06-22T15:26:18;39.40;1.00
1377;DHT22;682;52.502;13.488;2023-06-22T15:28:47;39.00;1.00
1377;DHT22;682;52.502;13.488;2023-06-22T15:31:17;38.80;1.00
1377;DHT22;682;52.502;13.488;2023-06-22T15:33:44;38.40;1.00
1377;DHT22;682;52.502;13.488;2023-06-22T15:36:12;38.10;1.00
1377;DHT22;682;52.502;13.488;2023-06-22T15:38:39;37.60;1.00
1377;DHT22;682;52.502;13.488;2023-06-22T15:41:08;37.60;1.00
1377;DHT22;682;52.502;13.488;2023-06-22T15:43:38;37.70;1.00
1377;DHT22;682;52.502;13.488;2023-06-22T15:46:06;37.10;1.00
1377;DHT22;682;52.502;13.488;2023-06-22T15:48:33;36.20;1.00
1377;DHT22;682;52.502;13.488;2023-06-22T15:51:00;36.40;1.00
1377;DHT22;682;52.502;13.488;2023-06-22T15:53:28;36.90;1.00
1377;DHT22;682;52.502;13.488;2023-06-22T15:55:56;37.00;1.00
1377;DHT22;682;52.502;13.488;2023-06-22T15:58:24;36.50;1.00
1377;DHT22;682;52.502;13.488;2023-06-22T16:00:53;36.30;1.00
1377;DHT22;682;52.502;13.488;2023-06-22T16:03:23;36.50;1.00
1377;DHT22;682;52.502;13.488;2023-06-22T16:05:50;36.30;1.00
1377;DHT22;682;52.502;13.488;2023-06-22T16:08:18;35.60;1.00
1377;DHT22;682;52.502;13.488;2023-06-22T16:10:45;35.10;1.00
1377;DHT22;682;52.502;13.488;2023-06-22T16:13:12;35.00;1.00
1377;DHT22;682;52.502;13.488;2023-06-22T16:15:41;35.40;1.00
1377;DHT22;682;52.502;13.488;2023-06-22T16:18:08;35.60;1.00
1377;DHT22;682;52.502;13.488;2023-06-22T16:20:38;35.60;1.00
1377;DHT22;682;52.502;13.488;2023-06-22T16:23:05;35.80;1.00
1377;DHT22;682;52.502;13.488;2023-06-22T16:25:32;35.40;1.00
1377;DHT22;682;52.502;13.488;2023-06-22T16:28:00;35.40;1.00